PORT of AABENRAA

Land: Denmark Land: Denmark (DK)
Latitude / Longitude: 55.034° / 9.4345° Toon op kaart Toon op kaart
Lokale Tijd:  UTC +2
UN/LOCODE: DKAAB
Schepen momenteel in haven: 2
Verwachte aankomsten: 2

Recente Aankomst- en Vertrektijden


Scheepsnaam
Aankomst (UTC)
Aankomst (LT)
Vertrek (UTC)
Vertrek (LT)
Vessel Type: Cargoschip  DANAVIK 2014-10-23 02:43:00 2014-10-23 04:43:00 2014-10-23 15:40:00 2014-10-23 17:40:00
Vessel Type: Cargoschip  SC ASTREA 2014-10-23 04:14:00 2014-10-23 06:14:00 2014-10-23 15:31:00 2014-10-23 17:31:00
Vessel Type: Tankers  THUN GLORY 2014-10-22 22:51:00 2014-10-23 00:51:00 2014-10-23 14:32:00 2014-10-23 16:32:00
Vessel Type: Sleepboot, Loods etc  JOULIUS 2014-10-22 17:25:00 2014-10-22 19:25:00 2014-10-22 18:18:00 2014-10-22 20:18:00
Vessel Type: Cargoschip  CEMLUNA 2014-10-21 10:34:00 2014-10-21 12:34:00 2014-10-22 09:40:00 2014-10-22 11:40:00
Vessel Type: Jachten & Overige  LIV II 2014-10-22 07:47:00 2014-10-22 09:47:00 2014-10-22 08:07:00 2014-10-22 10:07:00
Vessel Type: Jachten & Overige  LIV II 2014-10-21 15:39:00 2014-10-21 17:39:00 2014-10-22 06:20:00 2014-10-22 08:20:00
Vessel Type: Cargoschip  SC ASTREA 2014-10-21 04:24:00 2014-10-21 06:24:00 2014-10-21 16:07:00 2014-10-21 18:07:00
Vessel Type: Cargoschip  PRIDE 2014-10-20 08:09:00 2014-10-20 10:09:00 2014-10-21 14:37:00 2014-10-21 16:37:00
Vessel Type: Cargoschip  EEMS CHRYSTAL 2014-10-20 16:16:00 2014-10-20 18:16:00 2014-10-21 12:33:00 2014-10-21 14:33:00

Verwachte aankomsten


Scheepsnaam
Scheduled Arrival (UTC)
Geplande Aankomst (lokale tijd)
Geschatte Aankomsttijd (UTC)
Geschatte Aankomsttijd (Lokaal)
Vessel Type: Cargoschip  GRIETJE 2014-10-24 21:00:00 2014-10-24 23:00:00 2014-10-27 11:09:00 2014-10-27 13:09:00
Vessel Type: Sleepboot, Loods etc  FAIRMOUNT SUMMIT 2014-11-02 12:00:00 2014-11-02 13:00:00 2014-11-02 12:19:00 2014-11-02 13:19:00

Wind Forecast


    
Tijd (UTC)
Snelheid
Direction
Temperature
2014-10-23 21:00:00 13 knots 189° 12°C
2014-10-24 00:00:00 14 knots 194° 12°C
2014-10-24 03:00:00 14 knots 192° 11°C
2014-10-24 06:00:00 15 knots 191° 11°C
2014-10-24 09:00:00 16 knots 193° 11°C
2014-10-24 12:00:00 16 knots 195° 12°C
2014-10-24 15:00:00 14 knots 189° 12°C
2014-10-24 18:00:00 16 knots 183° 13°C
2014-10-24 21:00:00 19 knots 186° 12°C
2014-10-25 00:00:00 19 knots 191° 12°C
2014-10-25 03:00:00 17 knots 193° 11°C
2014-10-25 06:00:00 17 knots 196° 10°C
2014-10-25 09:00:00 13 knots 216° 11°C
2014-10-25 12:00:00 11 knots 257° 14°C
2014-10-25 15:00:00 13 knots 254° 13°C
2014-10-25 18:00:00 12 knots 225° 12°C
2014-10-25 21:00:00 13 knots 216° 11°C